Погода Жоламанна неделю

Алматинская область, Казахстан

06 - 12 сентября
  • 06сентября
    Сегодня
    +11°
    +27°
    Ясно и безоблачно
    ВремяПогодаТемператураВлажностьДавлениеВетер, м/сВероятность осадков
    02:00Ясно и безоблачно+11°C34 %684 мм0.2 м/с2 %
    05:00Ясно и безоблачно+9°C39 %684 мм0.1 м/с2 %
    08:00Ясно и безоблачно+17°C35 %686 мм0.5 м/с2 %
    11:00Ясно и безоблачно+24°C21 %686 мм0.2 м/с2 %
    14:00Ясно и безоблачно+27°C20 %686 мм1.4 м/с2 %
    17:00Ясно и безоблачно+25°C23 %685 мм4.5 м/с2 %
    20:00Ясно и безоблачно+17°C36 %684 мм2.1 м/с2 %
    23:00Ясно и безоблачно+15°C41 %683 мм0.3 м/с2 %
  • 07сентября
    Понедельник
    +11°
    +29°
    Ясно и безоблачно
    ВремяПогодаТемператураВлажностьДавлениеВетер, м/сВероятность осадков
    02:00Ясно и безоблачно+13°C46 %682 мм0.3 м/с2 %
    05:00Ясно и безоблачно+12°C51 %681 мм1.0 м/с2 %
    08:00Ясно и безоблачно+21°C34 %683 мм1.7 м/с2 %
    11:00Ясно и безоблачно+27°C23 %684 мм2.1 м/с2 %
    14:00Ясно и безоблачно+28°C20 %683 мм3.7 м/с2 %
    17:00Ясно и безоблачно+26°C20 %683 мм5.7 м/с2 %
    20:00Ясно и безоблачно+17°C32 %682 мм2.6 м/с2 %
    23:00Ясно и безоблачно+15°C38 %681 мм1.2 м/с2 %
  • 08сентября
    Вторник
    +11°
    +27°
    Ясно и безоблачно
    ВремяПогодаТемператураВлажностьДавлениеВетер, м/сВероятность осадков
    02:00Ясно и безоблачно+13°C42 %680 мм0.4 м/с2 %
    05:00Ясно и безоблачно+12°C45 %680 мм0.4 м/с2 %
    08:00Ясно и безоблачно+20°C29 %683 мм0.5 м/с2 %
    11:00Ясно и безоблачно+26°C17 %684 мм1.7 м/с2 %
    14:00Ясно и безоблачно+27°C19 %684 мм5.1 м/с2 %
    17:00Ясно и безоблачно+25°C23 %684 мм4.3 м/с2 %
    20:00Ясно и безоблачно+18°C35 %684 мм2.1 м/с2 %
    23:00Ясно и безоблачно+16°C40 %683 мм0.9 м/с2 %
  • 09сентября
    Среда
    +11°
    +30°
    Ясно и безоблачно
    ВремяПогодаТемператураВлажностьДавлениеВетер, м/сВероятность осадков
    02:00Ясно и безоблачно+13°C46 %683 мм0.2 м/с2 %
    05:00Ясно и безоблачно+11°C50 %683 мм0.1 м/с2 %
    08:00Ясно и безоблачно+20°C30 %685 мм0.4 м/с2 %
    11:00Ясно и безоблачно+27°C12 %686 мм1.5 м/с2 %
    14:00Ясно и безоблачно+30°C10 %686 мм3.4 м/с2 %
    17:00Ясно и безоблачно+28°C11 %686 мм3.6 м/с2 %
    20:00Ясно и безоблачно+19°C25 %684 мм2.1 м/с2 %
    23:00Ясно и безоблачно+17°C30 %684 мм0.2 м/с2 %
  • 10сентября
    Четверг
    +15°
    +33°
    Ясно и безоблачно
    ВремяПогодаТемператураВлажностьДавлениеВетер, м/сВероятность осадков
    02:00Ясно и безоблачно+14°C35 %683 мм0.5 м/с2 %
    05:00Ясно и безоблачно+12°C33 %682 мм0.5 м/с2 %
    08:00Ясно и безоблачно+22°C21 %685 мм0.7 м/с2 %
    11:00Ясно и безоблачно+30°C13 %686 мм0.4 м/с2 %
    14:00Ясно и безоблачно+32°C11 %685 мм1.2 м/с2 %
    17:00Ясно и безоблачно+30°C14 %685 мм4.7 м/с2 %
    20:00Практически безоблачно+20°C22 %683 мм1.1 м/с2 %
    23:00Ясно и безоблачно+18°C23 %683 мм0.4 м/с2 %
  • 11сентября
    Пятница
    +15°
    +35°
    Ясно и безоблачно
    ВремяПогодаТемператураВлажностьДавлениеВетер, м/сВероятность осадков
    05:00Ясно и безоблачно+15°C31 %681 мм0.8 м/с2 %
    11:00Ясно и безоблачно+32°C14 %684 мм0.7 м/с2 %
    17:00Ясно и безоблачно+28°C16 %684 мм2.8 м/с2 %
    23:00Практически безоблачно+19°C29 %683 мм2.2 м/с6 %
  • 12сентября
    Суббота
    +13°
    +27°
    Ясно и безоблачно
    ВремяПогодаТемператураВлажностьДавлениеВетер, м/сВероятность осадков
    05:00Ясно и безоблачно+16°C35 %683 мм2.6 м/с9 %
    11:00Ясно и безоблачно+25°C27 %686 мм3.4 м/с27 %
    17:00Ясно и безоблачно+24°C35 %686 мм3.9 м/с22 %
    23:00Ясно и безоблачно+17°C54 %685 мм2.4 м/с20 %
Мы используем cookies
Соглашаюсь